Chemical Pioneer — KAFO — position and weather

sailwx.info

Track history (hours):
 
Tides and Currents Weather Stations Pressure Air Temp Water Temp Dewpoint Dewpoint Depression Visibility Wind Speed Wind Dir Waves Ship Positions

Chemical Pioneer

Owner: US Shipping Corp, Edison, NJ. More information available from US FCC via Universal Licensing System and Coast Guard Vessel Documentation Center.

Last reported at 2018-Feb-20 12:11 UTC. Time now 2018-Feb-20 17:57 UTC.
Position N 28°54' W 095°13'.

Type: Tanker. MMSI: 366032000.

Date/timePositionNaut miles runAvg speedWind from/ knotsBaromVisibWave heightAir tempDewpointWater temp
2018-Feb-20 12:11N 28°54' W 095°13'0 0.0
2018-Feb-20 09:02N 28°54' W 095°13'0 0.0
2018-Feb-20 09:00N 28°54' W 095°13'0 0.0
2018-Feb-20 08:05N 28°54' W 095°13'0 0.0
2018-Feb-20 07:59N 28°54' W 095°13'0 0.0
2018-Feb-20 07:17N 28°54' W 095°13'0 0.0
2018-Feb-20 07:00N 28°54' W 095°13'0 0.5
2018-Feb-20 06:29N 28°54' W 095°13'3 5.6
2018-Feb-20 06:00N 28°52' W 095°11'3910.3
2018-Feb-20 02:14N 29°18' W 094°38'610.6
2018-Feb-20 01:39N 29°21' W 094°45'511.7
2018-Feb-20 01:14N 29°22' W 094°50'2 8.9
2018-Feb-20 01:00N 29°23' W 094°52'2 4.2
2018-Feb-20 00:30N 29°22' W 094°54'0 1.0
2018-Feb-20 00:00N 29°22' W 094°55'0 0.0
2018-Feb-19 13:58N 29°22' W 094°55'0 0.0
2018-Feb-19 10:28N 29°22' W 094°55'0 0.0
2018-Feb-19 09:55N 29°22' W 094°55'0 0.0
2018-Feb-19 09:25N 29°22' W 094°55'0 0.0
2018-Feb-19 08:55N 29°22' W 094°55'0 0.0
2018-Feb-19 08:16N 29°22' W 094°55'0 0.0
2018-Feb-19 07:49N 29°22' W 094°55'0 0.0
2018-Feb-19 07:28N 29°22' W 094°55'0 0.0
2018-Feb-19 06:55N 29°22' W 094°55'0 0.0
2018-Feb-19 06:28N 29°22' W 094°55'0 0.0
2018-Feb-19 05:46N 29°22' W 094°55'0 0.0
2018-Feb-19 05:25N 29°22' W 094°55'0 0.0
2018-Feb-19 04:58N 29°22' W 094°55'0 0.0
2018-Feb-19 00:53N 29°22' W 094°55'0 0.2
2018-Feb-19 00:28N 29°22' W 094°55'1 2.9
2018-Feb-19 00:00N 29°22' W 094°53'2 4.2
2018-Feb-18 23:30N 29°22' W 094°51'510.2
2018-Feb-18 23:00N 29°21' W 094°46'613.0
2018-Feb-18 22:30N 29°19' W 094°38'3 3.3
2018-Feb-18 21:35N 29°19' W 094°35'0 0.0
2018-Feb-18 21:17N 29°19' W 094°35'0 0.0
2018-Feb-18 17:47N 29°19' W 094°35'0 0.0
2018-Feb-18 17:26N 29°19' W 094°35'0 0.0
2018-Feb-18 15:38N 29°19' W 094°35'0 0.0
2018-Feb-18 15:11N 29°19' W 094°35'0 0.0
2018-Feb-18 09:14N 29°19' W 094°35'0 0.0
2018-Feb-18 08:59N 29°19' W 094°35'0 0.0
2018-Feb-18 07:53N 29°19' W 094°35'0 0.0
2018-Feb-18 07:26N 29°19' W 094°35'0 0.0
2018-Feb-18 06:59N 29°19' W 094°35'0 0.0
2018-Feb-18 06:23N 29°19' W 094°35'0 0.0
2018-Feb-18 05:56N 29°19' W 094°35'0 0.0
2018-Feb-18 05:29N 29°19' W 094°35'0 0.0
2018-Feb-18 04:59N 29°19' W 094°35'0 0.0
2018-Feb-18 03:44N 29°19' W 094°35'0 0.0
2018-Feb-18 02:53N 29°19' W 094°35'0 0.0
2018-Feb-18 00:53N 29°19' W 094°35'0 0.2
2018-Feb-18 00:23N 29°19' W 094°35'0 0.2
2018-Feb-17 23:59N 29°19' W 094°35'0 0.1
2018-Feb-17 23:20N 29°19' W 094°35'0 0.0
2018-Feb-17 22:56N 29°19' W 094°35'0 0.0
2018-Feb-17 22:29N 29°19' W 094°35'0 0.0
2018-Feb-17 21:50N 29°19' W 094°35'0 0.0
2018-Feb-17 21:23N 29°19' W 094°35'0 0.0
2018-Feb-17 20:59N 29°19' W 094°35'0 0.0
2018-Feb-17 19:14N 29°19' W 094°35'0 0.1
2018-Feb-17 18:47N 29°19' W 094°35'0 0.0
2018-Feb-17 18:14N 29°19' W 094°35'0 0.0
2018-Feb-17 17:41N 29°19' W 094°35'0 0.0
2018-Feb-17 12:14N 29°19' W 094°35'0 0.1
2018-Feb-17 11:56N 29°19' W 094°35'0 0.0
2018-Feb-17 11:26N 29°19' W 094°35'0 0.0
2018-Feb-17 10:56N 29°19' W 094°35'0 0.0
2018-Feb-17 10:29N 29°19' W 094°35'0 0.0
2018-Feb-17 09:59N 29°19' W 094°35'0 0.0
2018-Feb-17 09:29N 29°19' W 094°35'0 0.0
2018-Feb-17 08:59N 29°19' W 094°35'0 0.0
2018-Feb-17 08:20N 29°19' W 094°35'0 0.0
2018-Feb-17 07:59N 29°19' W 094°35'0 0.0
2018-Feb-17 07:29N 29°19' W 094°35'0 0.1
2018-Feb-17 06:59N 29°19' W 094°35'0 0.1
2018-Feb-17 06:29N 29°19' W 094°35'0 0.0
2018-Feb-17 05:59N 29°19' W 094°35'0 0.0
2018-Feb-17 05:26N 29°19' W 094°35'0 0.0
2018-Feb-17 04:59N 29°19' W 094°35'0 0.0
2018-Feb-17 04:26N 29°19' W 094°35'0 0.0
2018-Feb-17 03:56N 29°19' W 094°35'0 0.0
2018-Feb-17 03:23N 29°19' W 094°35'0 0.0
2018-Feb-17 02:53N 29°19' W 094°35'0 0.1
2018-Feb-17 02:26N 29°19' W 094°35'0 0.0
2018-Feb-17 01:59N 29°19' W 094°35'0 0.0
2018-Feb-17 00:44N 29°19' W 094°35'0 0.0
2018-Feb-17 00:23N 29°19' W 094°35'0 0.1
2018-Feb-16 23:59N 29°19' W 094°35'0 0.1
2018-Feb-16 23:29N 29°19' W 094°35'0 0.1
2018-Feb-16 22:59N 29°19' W 094°35'0 0.1
2018-Feb-16 22:29N 29°19' W 094°35'0 0.0
2018-Feb-16 21:56N 29°19' W 094°35'0 0.1
2018-Feb-16 21:29N 29°19' W 094°35'0 0.1
2018-Feb-16 20:59N 29°19' W 094°35'0 0.0
2018-Feb-16 16:23N 29°19' W 094°35'0 0.0
2018-Feb-16 09:47N 29°19' W 094°35'0 0.1
2018-Feb-16 09:29N 29°19' W 094°35'0 0.0
2018-Feb-16 08:59N 29°19' W 094°35'0 0.0
2018-Feb-16 08:29N 29°19' W 094°35'0 0.0
2018-Feb-16 07:53N 29°19' W 094°35'0 0.0
2018-Feb-16 07:29N 29°19' W 094°35'0 0.0
2018-Feb-16 06:41N 29°19' W 094°35'0 0.0
2018-Feb-16 06:29N 29°19' W 094°35'0 0.0
2018-Feb-16 05:59N 29°19' W 094°35'0 0.0
2018-Feb-16 05:29N 29°19' W 094°35'0 0.0
2018-Feb-16 04:53N 29°19' W 094°35'0 0.0
2018-Feb-16 04:29N 29°19' W 094°35'0 0.0
2018-Feb-16 03:53N 29°19' W 094°35'0 0.0
2018-Feb-16 02:44N 29°19' W 094°35'0 0.1
2018-Feb-16 02:17N 29°19' W 094°35'0 0.1
2018-Feb-16 01:47N 29°19' W 094°35'0 0.0
2018-Feb-16 01:05N 29°19' W 094°35'0 0.0
2018-Feb-16 00:53N 29°19' W 094°35'0 0.0
2018-Feb-16 00:29N 29°19' W 094°35'0 0.0
2018-Feb-15 23:56N 29°19' W 094°35'0 0.0
2018-Feb-15 23:11N 29°19' W 094°35'0 0.0
2018-Feb-15 22:59N 29°19' W 094°35'0 0.0
2018-Feb-15 22:29N 29°19' W 094°35'0 0.0
2018-Feb-15 21:50N 29°19' W 094°35'0 0.0
2018-Feb-15 21:26N 29°19' W 094°35'0 0.0
2018-Feb-15 20:59N 29°19' W 094°35'0 0.0
2018-Feb-15 09:32N 29°19' W 094°35'0 0.0
2018-Feb-15 09:23N 29°19' W 094°35'0 0.0
2018-Feb-15 08:32N 29°19' W 094°35'0 0.0
2018-Feb-15 08:17N 29°19' W 094°35'0 0.0
2018-Feb-15 07:59N 29°19' W 094°35'0 0.0
2018-Feb-15 06:59N 29°19' W 094°35'0 0.0
2018-Feb-15 06:02N 29°19' W 094°35'0 0.0
2018-Feb-15 05:59N 29°19' W 094°35'0 0.0
2018-Feb-15 05:26N 29°19' W 094°35'0 0.0
2018-Feb-14 18:53N 29°19' W 094°35'0 0.0
2018-Feb-14 16:08N 29°19' W 094°35'0 0.0
2018-Feb-14 15:56N 29°19' W 094°35'0 0.0
2018-Feb-13 17:57N 29°19' W 094°35'  
2018-Feb-11 09:41N 25°13' W 080°07'212.8
2018-Feb-11 09:30N 25°15' W 080°05'612.6
2018-Feb-11 09:00N 25°21' W 080°03'612.2
2018-Feb-11 08:30N 25°27' W 080°02'612.5
2018-Feb-11 08:00N 25°33' W 080°02'612.7
2018-Feb-11 07:31N 25°39' W 080°02'612.9
2018-Feb-11 07:01N 25°46' W 080°02'713.0
2018-Feb-11 06:30N 25°52' W 080°02'612.7
2018-Feb-11 06:01N 25°59' W 080°02'612.3
2018-Feb-11 05:31N 26°04' W 079°59'612.1
2018-Feb-11 05:00N 26°10' W 079°58'612.2
2018-Feb-11 04:31N 26°16' W 079°58'612.5
2018-Feb-11 04:00N 26°23' W 079°57'612.6
2018-Feb-11 03:30N 26°29' W 079°57'713.5
2018-Feb-11 03:00N 26°36' W 079°57'813.6
2018-Feb-11 02:25N 26°44' W 079°56'513.4
2018-Feb-11 02:01N 26°49' W 079°56'713.1
2018-Feb-11 01:30N 26°56' W 079°55'714.1
2018-Feb-11 01:00N 27°02' W 079°57'  
Track history (hours):
 
Tides and Currents Weather Stations Pressure Air Temp Water Temp Dewpoint Dewpoint Depression Visibility Wind Speed Wind Dir Waves Ship Positions

Chemical Pioneer

Owner: US Shipping Corp, Edison, NJ. More information available from US FCC via Universal Licensing System and Coast Guard Vessel Documentation Center.

Last reported at 2018-Feb-20 12:11 UTC. Time now 2018-Feb-20 17:57 UTC.
Position N 28°54' W 095°13'.

Type: Tanker. MMSI: 366032000.

Date/timePositionNaut miles runAvg speedWind from/ knotsBaromVisibWave heightAir tempDewpointWater temp
2018-Feb-20 12:11N 28°54' W 095°13'0 0.0
2018-Feb-20 09:02N 28°54' W 095°13'0 0.0
2018-Feb-20 09:00N 28°54' W 095°13'0 0.0
2018-Feb-20 08:05N 28°54' W 095°13'0 0.0
2018-Feb-20 07:59N 28°54' W 095°13'0 0.0
2018-Feb-20 07:17N 28°54' W 095°13'0 0.0
2018-Feb-20 07:00N 28°54' W 095°13'0 0.5
2018-Feb-20 06:29N 28°54' W 095°13'3 5.6
2018-Feb-20 06:00N 28°52' W 095°11'3910.3
2018-Feb-20 02:14N 29°18' W 094°38'610.6
2018-Feb-20 01:39N 29°21' W 094°45'511.7
2018-Feb-20 01:14N 29°22' W 094°50'2 8.9
2018-Feb-20 01:00N 29°23' W 094°52'2 4.2
2018-Feb-20 00:30N 29°22' W 094°54'0 1.0
2018-Feb-20 00:00N 29°22' W 094°55'0 0.0
2018-Feb-19 13:58N 29°22' W 094°55'0 0.0
2018-Feb-19 10:28N 29°22' W 094°55'0 0.0
2018-Feb-19 09:55N 29°22' W 094°55'0 0.0
2018-Feb-19 09:25N 29°22' W 094°55'0 0.0
2018-Feb-19 08:55N 29°22' W 094°55'0 0.0
2018-Feb-19 08:16N 29°22' W 094°55'0 0.0
2018-Feb-19 07:49N 29°22' W 094°55'0 0.0
2018-Feb-19 07:28N 29°22' W 094°55'0 0.0
2018-Feb-19 06:55N 29°22' W 094°55'0 0.0
2018-Feb-19 06:28N 29°22' W 094°55'0 0.0
2018-Feb-19 05:46N 29°22' W 094°55'0 0.0
2018-Feb-19 05:25N 29°22' W 094°55'0 0.0
2018-Feb-19 04:58N 29°22' W 094°55'0 0.0
2018-Feb-19 00:53N 29°22' W 094°55'0 0.2
2018-Feb-19 00:28N 29°22' W 094°55'1 2.9
2018-Feb-19 00:00N 29°22' W 094°53'2 4.2
2018-Feb-18 23:30N 29°22' W 094°51'510.2
2018-Feb-18 23:00N 29°21' W 094°46'613.0
2018-Feb-18 22:30N 29°19' W 094°38'3 3.3
2018-Feb-18 21:35N 29°19' W 094°35'0 0.0
2018-Feb-18 21:17N 29°19' W 094°35'0 0.0
2018-Feb-18 17:47N 29°19' W 094°35'0 0.0
2018-Feb-18 17:26N 29°19' W 094°35'0 0.0
2018-Feb-18 15:38N 29°19' W 094°35'0 0.0
2018-Feb-18 15:11N 29°19' W 094°35'0 0.0
2018-Feb-18 09:14N 29°19' W 094°35'0 0.0
2018-Feb-18 08:59N 29°19' W 094°35'0 0.0
2018-Feb-18 07:53N 29°19' W 094°35'0 0.0
2018-Feb-18 07:26N 29°19' W 094°35'0 0.0
2018-Feb-18 06:59N 29°19' W 094°35'0 0.0
2018-Feb-18 06:23N 29°19' W 094°35'0 0.0
2018-Feb-18 05:56N 29°19' W 094°35'0 0.0
2018-Feb-18 05:29N 29°19' W 094°35'0 0.0
2018-Feb-18 04:59N 29°19' W 094°35'0 0.0
2018-Feb-18 03:44N 29°19' W 094°35'0 0.0
2018-Feb-18 02:53N 29°19' W 094°35'0 0.0
2018-Feb-18 00:53N 29°19' W 094°35'0 0.2
2018-Feb-18 00:23N 29°19' W 094°35'0 0.2
2018-Feb-17 23:59N 29°19' W 094°35'0 0.1
2018-Feb-17 23:20N 29°19' W 094°35'0 0.0
2018-Feb-17 22:56N 29°19' W 094°35'0 0.0
2018-Feb-17 22:29N 29°19' W 094°35'0 0.0
2018-Feb-17 21:50N 29°19' W 094°35'0 0.0
2018-Feb-17 21:23N 29°19' W 094°35'0 0.0
2018-Feb-17 20:59N 29°19' W 094°35'0 0.0
2018-Feb-17 19:14N 29°19' W 094°35'0 0.1
2018-Feb-17 18:47N 29°19' W 094°35'0 0.0
2018-Feb-17 18:14N 29°19' W 094°35'0 0.0
2018-Feb-17 17:41N 29°19' W 094°35'0 0.0
2018-Feb-17 12:14N 29°19' W 094°35'0 0.1
2018-Feb-17 11:56N 29°19' W 094°35'0 0.0
2018-Feb-17 11:26N 29°19' W 094°35'0 0.0
2018-Feb-17 10:56N 29°19' W 094°35'0 0.0
2018-Feb-17 10:29N 29°19' W 094°35'0 0.0
2018-Feb-17 09:59N 29°19' W 094°35'0 0.0
2018-Feb-17 09:29N 29°19' W 094°35'0 0.0
2018-Feb-17 08:59N 29°19' W 094°35'0 0.0
2018-Feb-17 08:20N 29°19' W 094°35'0 0.0
2018-Feb-17 07:59N 29°19' W 094°35'0 0.0
2018-Feb-17 07:29N 29°19' W 094°35'0 0.1
2018-Feb-17 06:59N 29°19' W 094°35'0 0.1
2018-Feb-17 06:29N 29°19' W 094°35'0 0.0
2018-Feb-17 05:59N 29°19' W 094°35'0 0.0
2018-Feb-17 05:26N 29°19' W 094°35'0 0.0
2018-Feb-17 04:59N 29°19' W 094°35'0 0.0
2018-Feb-17 04:26N 29°19' W 094°35'0 0.0
2018-Feb-17 03:56N 29°19' W 094°35'0 0.0
2018-Feb-17 03:23N 29°19' W 094°35'0 0.0
2018-Feb-17 02:53N 29°19' W 094°35'0 0.1
2018-Feb-17 02:26N 29°19' W 094°35'0 0.0
2018-Feb-17 01:59N 29°19' W 094°35'0 0.0
2018-Feb-17 00:44N 29°19' W 094°35'0 0.0
2018-Feb-17 00:23N 29°19' W 094°35'0 0.1
2018-Feb-16 23:59N 29°19' W 094°35'0 0.1
2018-Feb-16 23:29N 29°19' W 094°35'0 0.1
2018-Feb-16 22:59N 29°19' W 094°35'0 0.1
2018-Feb-16 22:29N 29°19' W 094°35'0 0.0
2018-Feb-16 21:56N 29°19' W 094°35'0 0.1
2018-Feb-16 21:29N 29°19' W 094°35'0 0.1
2018-Feb-16 20:59N 29°19' W 094°35'0 0.0
2018-Feb-16 16:23N 29°19' W 094°35'0 0.0
2018-Feb-16 09:47N 29°19' W 094°35'0 0.1
2018-Feb-16 09:29N 29°19' W 094°35'0 0.0
2018-Feb-16 08:59N 29°19' W 094°35'0 0.0
2018-Feb-16 08:29N 29°19' W 094°35'0 0.0
2018-Feb-16 07:53N 29°19' W 094°35'0 0.0
2018-Feb-16 07:29N 29°19' W 094°35'0 0.0
2018-Feb-16 06:41N 29°19' W 094°35'0 0.0
2018-Feb-16 06:29N 29°19' W 094°35'0 0.0
2018-Feb-16 05:59N 29°19' W 094°35'0 0.0
2018-Feb-16 05:29N 29°19' W 094°35'0 0.0
2018-Feb-16 04:53N 29°19' W 094°35'0 0.0
2018-Feb-16 04:29N 29°19' W 094°35'0 0.0
2018-Feb-16 03:53N 29°19' W 094°35'0 0.0
2018-Feb-16 02:44N 29°19' W 094°35'0 0.1
2018-Feb-16 02:17N 29°19' W 094°35'0 0.1
2018-Feb-16 01:47N 29°19' W 094°35'0 0.0
2018-Feb-16 01:05N 29°19' W 094°35'0 0.0
2018-Feb-16 00:53N 29°19' W 094°35'0 0.0
2018-Feb-16 00:29N 29°19' W 094°35'0 0.0
2018-Feb-15 23:56N 29°19' W 094°35'0 0.0
2018-Feb-15 23:11N 29°19' W 094°35'0 0.0
2018-Feb-15 22:59N 29°19' W 094°35'0 0.0
2018-Feb-15 22:29N 29°19' W 094°35'0 0.0
2018-Feb-15 21:50N 29°19' W 094°35'0 0.0
2018-Feb-15 21:26N 29°19' W 094°35'0 0.0
2018-Feb-15 20:59N 29°19' W 094°35'0 0.0
2018-Feb-15 09:32N 29°19' W 094°35'0 0.0
2018-Feb-15 09:23N 29°19' W 094°35'0 0.0
2018-Feb-15 08:32N 29°19' W 094°35'0 0.0
2018-Feb-15 08:17N 29°19' W 094°35'0 0.0
2018-Feb-15 07:59N 29°19' W 094°35'0 0.0
2018-Feb-15 06:59N 29°19' W 094°35'0 0.0
2018-Feb-15 06:02N 29°19' W 094°35'0 0.0
2018-Feb-15 05:59N 29°19' W 094°35'0 0.0
2018-Feb-15 05:26N 29°19' W 094°35'0 0.0
2018-Feb-14 18:53N 29°19' W 094°35'0 0.0
2018-Feb-14 16:08N 29°19' W 094°35'0 0.0
2018-Feb-14 15:56N 29°19' W 094°35'0 0.0
2018-Feb-13 17:57N 29°19' W 094°35'  
2018-Feb-11 09:41N 25°13' W 080°07'212.8
2018-Feb-11 09:30N 25°15' W 080°05'612.6
2018-Feb-11 09:00N 25°21' W 080°03'612.2
2018-Feb-11 08:30N 25°27' W 080°02'612.5
2018-Feb-11 08:00N 25°33' W 080°02'612.7
2018-Feb-11 07:31N 25°39' W 080°02'612.9
2018-Feb-11 07:01N 25°46' W 080°02'713.0
2018-Feb-11 06:30N 25°52' W 080°02'612.7
2018-Feb-11 06:01N 25°59' W 080°02'612.3
2018-Feb-11 05:31N 26°04' W 079°59'612.1
2018-Feb-11 05:00N 26°10' W 079°58'612.2
2018-Feb-11 04:31N 26°16' W 079°58'612.5
2018-Feb-11 04:00N 26°23' W 079°57'612.6
2018-Feb-11 03:30N 26°29' W 079°57'713.5
2018-Feb-11 03:00N 26°36' W 079°57'813.6
2018-Feb-11 02:25N 26°44' W 079°56'513.4
2018-Feb-11 02:01N 26°49' W 079°56'713.1
2018-Feb-11 01:30N 26°56' W 079°55'714.1
2018-Feb-11 01:00N 27°02' W 079°57'  

Dump ship's entire track history